sensor_id;sensor_type;location;lat;lon;timestamp;temperature;humidity
52459;DHT22;38372;52.902;6.024;2023-02-15T00:01:35;0.10;99.90
52459;DHT22;38372;52.902;6.024;2023-02-15T00:04:04;0.10;99.90
52459;DHT22;38372;52.902;6.024;2023-02-15T00:06:30;0.10;99.90
52459;DHT22;38372;52.902;6.024;2023-02-15T00:08:56;0.10;99.90
52459;DHT22;38372;52.902;6.024;2023-02-15T00:11:22;0.20;99.90
52459;DHT22;38372;52.902;6.024;2023-02-15T00:14:20;0.20;99.90
52459;DHT22;38372;52.902;6.024;2023-02-15T00:16:48;0.20;99.90
52459;DHT22;38372;52.902;6.024;2023-02-15T00:19:16;0.20;99.90
52459;DHT22;38372;52.902;6.024;2023-02-15T00:21:42;0.20;99.90
52459;DHT22;38372;52.902;6.024;2023-02-15T00:24:10;0.30;99.90
52459;DHT22;38372;52.902;6.024;2023-02-15T00:26:38;0.30;99.90
52459;DHT22;38372;52.902;6.024;2023-02-15T00:29:05;0.30;99.90
52459;DHT22;38372;52.902;6.024;2023-02-15T00:31:33;0.20;99.90
52459;DHT22;38372;52.902;6.024;2023-02-15T00:36:35;0.10;99.90
52459;DHT22;38372;52.902;6.024;2023-02-15T00:39:01;0.10;99.90
52459;DHT22;38372;52.902;6.024;2023-02-15T00:41:27;0.10;99.90
52459;DHT22;38372;52.902;6.024;2023-02-15T00:43:53;0.10;99.90
52459;DHT22;38372;52.902;6.024;2023-02-15T00:46:19;0.10;99.90
52459;DHT22;38372;52.902;6.024;2023-02-15T00:48:45;0.00;99.90
52459;DHT22;38372;52.902;6.024;2023-02-15T00:51:10;0.00;99.90
52459;DHT22;38372;52.902;6.024;2023-02-15T00:53:36;0.00;99.90
52459;DHT22;38372;52.902;6.024;2023-02-15T00:56:02;0.00;99.90
52459;DHT22;38372;52.902;6.024;2023-02-15T00:58:28;-0.10;99.90
52459;DHT22;38372;52.902;6.024;2023-02-15T01:00:53;-0.10;99.90
52459;DHT22;38372;52.902;6.024;2023-02-15T01:03:21;-0.10;99.90
52459;DHT22;38372;52.902;6.024;2023-02-15T01:05:48;-0.10;99.90
52459;DHT22;38372;52.902;6.024;2023-02-15T01:08:14;-0.20;99.90
52459;DHT22;38372;52.902;6.024;2023-02-15T01:10:40;-0.20;99.90
52459;DHT22;38372;52.902;6.024;2023-02-15T01:13:06;-0.20;99.90
52459;DHT22;38372;52.902;6.024;2023-02-15T01:15:34;-0.30;99.90
52459;DHT22;38372;52.902;6.024;2023-02-15T01:18:00;-0.30;99.90
52459;DHT22;38372;52.902;6.024;2023-02-15T01:20:27;-0.30;99.90
52459;DHT22;38372;52.902;6.024;2023-02-15T01:22:54;-0.30;99.90
52459;DHT22;38372;52.902;6.024;2023-02-15T01:25:22;-0.30;99.90
52459;DHT22;38372;52.902;6.024;2023-02-15T01:27:48;-0.30;99.90
52459;DHT22;38372;52.902;6.024;2023-02-15T01:30:15;-0.20;99.90
52459;DHT22;38372;52.902;6.024;2023-02-15T01:32:42;-0.20;99.90
52459;DHT22;38372;52.902;6.024;2023-02-15T01:35:09;-0.30;99.90
52459;DHT22;38372;52.902;6.024;2023-02-15T01:37:35;-0.30;99.90
52459;DHT22;38372;52.902;6.024;2023-02-15T01:40:02;-0.30;99.90
52459;DHT22;38372;52.902;6.024;2023-02-15T01:42:29;-0.30;99.90
52459;DHT22;38372;52.902;6.024;2023-02-15T01:44:58;-0.30;99.90
52459;DHT22;38372;52.902;6.024;2023-02-15T01:47:38;-0.30;99.90
52459;DHT22;38372;52.902;6.024;2023-02-15T01:50:21;-0.30;99.90
52459;DHT22;38372;52.902;6.024;2023-02-15T01:55:21;-0.30;99.90
52459;DHT22;38372;52.902;6.024;2023-02-15T01:57:47;-0.30;99.90
52459;DHT22;38372;52.902;6.024;2023-02-15T02:00:14;-0.30;99.90
52459;DHT22;38372;52.902;6.024;2023-02-15T02:02:43;-0.30;99.90
52459;DHT22;38372;52.902;6.024;2023-02-15T02:05:09;-0.30;99.90
52459;DHT22;38372;52.902;6.024;2023-02-15T02:07:39;-0.40;99.90
52459;DHT22;38372;52.902;6.024;2023-02-15T02:10:11;-0.40;99.90
52459;DHT22;38372;52.902;6.024;2023-02-15T02:12:37;-0.40;99.90
52459;DHT22;38372;52.902;6.024;2023-02-15T02:15:05;-0.40;99.90
52459;DHT22;38372;52.902;6.024;2023-02-15T02:20:17;-0.50;99.90
52459;DHT22;38372;52.902;6.024;2023-02-15T02:44:40;-0.60;99.90
52459;DHT22;38372;52.902;6.024;2023-02-15T02:50:27;-0.60;99.90
52459;DHT22;38372;52.902;6.024;2023-02-15T02:52:55;-0.50;99.90
52459;DHT22;38372;52.902;6.024;2023-02-15T02:58:29;-0.50;99.90
52459;DHT22;38372;52.902;6.024;2023-02-15T03:03:35;-0.50;99.90
52459;DHT22;38372;52.902;6.024;2023-02-15T03:06:10;-0.60;99.90
52459;DHT22;38372;52.902;6.024;2023-02-15T03:08:42;-0.60;99.90
52459;DHT22;38372;52.902;6.024;2023-02-15T03:11:09;-0.50;99.90
52459;DHT22;38372;52.902;6.024;2023-02-15T03:13:36;-0.40;99.90
52459;DHT22;38372;52.902;6.024;2023-02-15T03:16:03;-0.20;99.90
52459;DHT22;38372;52.902;6.024;2023-02-15T03:18:53;-0.20;99.90
52459;DHT22;38372;52.902;6.024;2023-02-15T03:21:43;-0.10;99.90
52459;DHT22;38372;52.902;6.024;2023-02-15T03:24:20;0.00;99.90
52459;DHT22;38372;52.902;6.024;2023-02-15T03:26:50;0.00;99.90
52459;DHT22;38372;52.902;6.024;2023-02-15T03:29:20;0.10;99.90
52459;DHT22;38372;52.902;6.024;2023-02-15T03:31:51;0.10;99.90
52459;DHT22;38372;52.902;6.024;2023-02-15T03:34:19;0.20;99.90
52459;DHT22;38372;52.902;6.024;2023-02-15T03:37:03;0.30;99.90
52459;DHT22;38372;52.902;6.024;2023-02-15T03:39:59;0.20;99.90
52459;DHT22;38372;52.902;6.024;2023-02-15T03:42:45;0.20;99.90
52459;DHT22;38372;52.902;6.024;2023-02-15T03:45:20;0.10;99.90
52459;DHT22;38372;52.902;6.024;2023-02-15T03:47:49;-0.10;99.90
52459;DHT22;38372;52.902;6.024;2023-02-15T03:50:23;-0.10;99.90
52459;DHT22;38372;52.902;6.024;2023-02-15T03:53:12;-0.20;99.90
52459;DHT22;38372;52.902;6.024;2023-02-15T03:55:39;-0.30;99.90
52459;DHT22;38372;52.902;6.024;2023-02-15T03:58:05;-0.30;99.90
52459;DHT22;38372;52.902;6.024;2023-02-15T04:00:58;-0.30;99.90
52459;DHT22;38372;52.902;6.024;2023-02-15T04:03:48;-0.30;99.90
52459;DHT22;38372;52.902;6.024;2023-02-15T04:06:15;-0.40;99.90
52459;DHT22;38372;52.902;6.024;2023-02-15T04:08:41;-0.40;99.90
52459;DHT22;38372;52.902;6.024;2023-02-15T04:11:25;-0.40;99.90
52459;DHT22;38372;52.902;6.024;2023-02-15T04:13:50;-0.40;99.90
52459;DHT22;38372;52.902;6.024;2023-02-15T04:16:22;-0.40;99.90
52459;DHT22;38372;52.902;6.024;2023-02-15T04:18:48;-0.50;99.90
52459;DHT22;38372;52.902;6.024;2023-02-15T04:21:33;-0.50;99.90
52459;DHT22;38372;52.902;6.024;2023-02-15T04:24:17;-0.60;99.90
52459;DHT22;38372;52.902;6.024;2023-02-15T04:27:02;-0.60;99.90
52459;DHT22;38372;52.902;6.024;2023-02-15T04:29:29;-0.70;99.90
52459;DHT22;38372;52.902;6.024;2023-02-15T04:31:56;-0.70;99.90
52459;DHT22;38372;52.902;6.024;2023-02-15T04:34:22;-0.70;99.90
52459;DHT22;38372;52.902;6.024;2023-02-15T04:36:48;-0.70;99.90
52459;DHT22;38372;52.902;6.024;2023-02-15T04:39:14;-0.80;99.90
52459;DHT22;38372;52.902;6.024;2023-02-15T04:41:40;-0.80;99.90
52459;DHT22;38372;52.902;6.024;2023-02-15T04:44:06;-0.80;99.90
52459;DHT22;38372;52.902;6.024;2023-02-15T04:46:32;-0.80;99.90
52459;DHT22;38372;52.902;6.024;2023-02-15T04:48:58;-0.70;99.90
52459;DHT22;38372;52.902;6.024;2023-02-15T04:51:24;-0.60;99.90
52459;DHT22;38372;52.902;6.024;2023-02-15T04:53:50;-0.40;99.90
52459;DHT22;38372;52.902;6.024;2023-02-15T04:56:19;-0.20;99.90
52459;DHT22;38372;52.902;6.024;2023-02-15T04:58:44;0.00;99.90
52459;DHT22;38372;52.902;6.024;2023-02-15T05:01:10;0.10;99.90
52459;DHT22;38372;52.902;6.024;2023-02-15T05:03:36;0.30;99.90
52459;DHT22;38372;52.902;6.024;2023-02-15T05:06:03;0.40;99.90
52459;DHT22;38372;52.902;6.024;2023-02-15T05:08:30;0.50;99.90
52459;DHT22;38372;52.902;6.024;2023-02-15T05:10:56;0.60;99.90
52459;DHT22;38372;52.902;6.024;2023-02-15T05:13:22;0.60;99.90
52459;DHT22;38372;52.902;6.024;2023-02-15T05:15:49;0.70;99.90
52459;DHT22;38372;52.902;6.024;2023-02-15T05:18:18;0.70;99.90
52459;DHT22;38372;52.902;6.024;2023-02-15T05:20:43;0.80;99.90
52459;DHT22;38372;52.902;6.024;2023-02-15T05:23:09;0.80;99.90
52459;DHT22;38372;52.902;6.024;2023-02-15T05:25:35;0.90;99.90
52459;DHT22;38372;52.902;6.024;2023-02-15T05:28:20;0.90;99.90
52459;DHT22;38372;52.902;6.024;2023-02-15T05:30:51;1.00;99.90
52459;DHT22;38372;52.902;6.024;2023-02-15T05:33:22;1.00;99.90
52459;DHT22;38372;52.902;6.024;2023-02-15T05:35:48;1.00;99.90
52459;DHT22;38372;52.902;6.024;2023-02-15T05:38:13;1.00;99.90
52459;DHT22;38372;52.902;6.024;2023-02-15T05:40:39;1.00;99.90
52459;DHT22;38372;52.902;6.024;2023-02-15T05:43:05;1.00;99.90
52459;DHT22;38372;52.902;6.024;2023-02-15T05:45:31;1.00;99.90
52459;DHT22;38372;52.902;6.024;2023-02-15T05:47:56;1.00;99.90
52459;DHT22;38372;52.902;6.024;2023-02-15T05:50:24;1.00;99.90
52459;DHT22;38372;52.902;6.024;2023-02-15T05:52:50;0.90;99.90
52459;DHT22;38372;52.902;6.024;2023-02-15T05:55:15;0.90;99.90
52459;DHT22;38372;52.902;6.024;2023-02-15T05:57:41;0.80;99.90
52459;DHT22;38372;52.902;6.024;2023-02-15T06:00:08;0.80;99.90
52459;DHT22;38372;52.902;6.024;2023-02-15T06:02:36;0.80;99.90
52459;DHT22;38372;52.902;6.024;2023-02-15T06:05:03;0.80;99.90
52459;DHT22;38372;52.902;6.024;2023-02-15T06:07:30;0.80;99.90
52459;DHT22;38372;52.902;6.024;2023-02-15T06:09:55;0.80;99.90
52459;DHT22;38372;52.902;6.024;2023-02-15T06:12:21;0.80;99.90
52459;DHT22;38372;52.902;6.024;2023-02-15T06:14:47;0.80;99.90
52459;DHT22;38372;52.902;6.024;2023-02-15T06:17:13;0.70;99.90
52459;DHT22;38372;52.902;6.024;2023-02-15T06:19:38;0.70;99.90
52459;DHT22;38372;52.902;6.024;2023-02-15T06:22:04;0.70;99.90
52459;DHT22;38372;52.902;6.024;2023-02-15T06:24:32;0.70;99.90
52459;DHT22;38372;52.902;6.024;2023-02-15T06:26:58;0.60;99.90
52459;DHT22;38372;52.902;6.024;2023-02-15T06:29:23;0.70;99.90
52459;DHT22;38372;52.902;6.024;2023-02-15T06:31:49;0.70;99.90
52459;DHT22;38372;52.902;6.024;2023-02-15T06:34:15;0.70;99.90
52459;DHT22;38372;52.902;6.024;2023-02-15T06:36:41;0.60;99.90
52459;DHT22;38372;52.902;6.024;2023-02-15T06:39:07;0.50;99.90
52459;DHT22;38372;52.902;6.024;2023-02-15T06:41:33;0.40;99.90
52459;DHT22;38372;52.902;6.024;2023-02-15T06:43:58;0.40;99.90
52459;DHT22;38372;52.902;6.024;2023-02-15T06:46:24;0.40;99.90
52459;DHT22;38372;52.902;6.024;2023-02-15T06:48:50;0.40;99.90
52459;DHT22;38372;52.902;6.024;2023-02-15T06:51:16;0.50;99.90
52459;DHT22;38372;52.902;6.024;2023-02-15T06:53:42;0.60;99.90
52459;DHT22;38372;52.902;6.024;2023-02-15T06:56:09;0.60;99.90
52459;DHT22;38372;52.902;6.024;2023-02-15T06:58:38;0.60;99.90
52459;DHT22;38372;52.902;6.024;2023-02-15T07:01:05;0.50;99.90
52459;DHT22;38372;52.902;6.024;2023-02-15T07:03:32;0.50;99.90
52459;DHT22;38372;52.902;6.024;2023-02-15T07:05:59;0.60;99.90
52459;DHT22;38372;52.902;6.024;2023-02-15T07:08:25;0.60;99.90
52459;DHT22;38372;52.902;6.024;2023-02-15T07:10:52;0.60;99.90
52459;DHT22;38372;52.902;6.024;2023-02-15T07:13:19;0.60;99.90
52459;DHT22;38372;52.902;6.024;2023-02-15T07:15:45;0.70;99.90
52459;DHT22;38372;52.902;6.024;2023-02-15T07:18:11;0.70;99.90
52459;DHT22;38372;52.902;6.024;2023-02-15T07:20:38;0.70;99.90
52459;DHT22;38372;52.902;6.024;2023-02-15T07:23:04;0.70;99.90
52459;DHT22;38372;52.902;6.024;2023-02-15T07:25:31;0.80;99.90
52459;DHT22;38372;52.902;6.024;2023-02-15T07:28:01;0.80;99.90
52459;DHT22;38372;52.902;6.024;2023-02-15T07:30:28;0.80;99.90
52459;DHT22;38372;52.902;6.024;2023-02-15T07:32:58;0.90;99.90
52459;DHT22;38372;52.902;6.024;2023-02-15T07:35:50;0.90;99.90
52459;DHT22;38372;52.902;6.024;2023-02-15T07:38:16;1.00;99.90
52459;DHT22;38372;52.902;6.024;2023-02-15T07:40:43;1.00;99.90
52459;DHT22;38372;52.902;6.024;2023-02-15T07:43:09;1.10;99.90
52459;DHT22;38372;52.902;6.024;2023-02-15T07:45:35;1.10;99.90
52459;DHT22;38372;52.902;6.024;2023-02-15T07:48:02;1.20;99.90
52459;DHT22;38372;52.902;6.024;2023-02-15T07:50:28;1.20;99.90
52459;DHT22;38372;52.902;6.024;2023-02-15T07:52:54;1.30;99.90
52459;DHT22;38372;52.902;6.024;2023-02-15T07:55:42;1.40;99.90
52459;DHT22;38372;52.902;6.024;2023-02-15T07:58:30;1.40;99.90
52459;DHT22;38372;52.902;6.024;2023-02-15T08:01:14;1.50;99.90
52459;DHT22;38372;52.902;6.024;2023-02-15T08:03:40;1.60;99.90
52459;DHT22;38372;52.902;6.024;2023-02-15T08:09:47;1.80;99.90
52459;DHT22;38372;52.902;6.024;2023-02-15T08:12:13;1.90;99.90
52459;DHT22;38372;52.902;6.024;2023-02-15T08:14:38;2.00;99.90
52459;DHT22;38372;52.902;6.024;2023-02-15T08:17:04;2.10;99.90
52459;DHT22;38372;52.902;6.024;2023-02-15T08:19:31;2.10;99.90
52459;DHT22;38372;52.902;6.024;2023-02-15T08:21:59;2.20;99.90
52459;DHT22;38372;52.902;6.024;2023-02-15T08:24:31;2.40;99.90
52459;DHT22;38372;52.902;6.024;2023-02-15T08:26:58;2.60;99.90
52459;DHT22;38372;52.902;6.024;2023-02-15T08:29:26;3.00;99.90
52459;DHT22;38372;52.902;6.024;2023-02-15T08:31:54;3.30;99.90
52459;DHT22;38372;52.902;6.024;2023-02-15T08:34:21;3.60;99.90
52459;DHT22;38372;52.902;6.024;2023-02-15T08:36:47;4.00;99.90
52459;DHT22;38372;52.902;6.024;2023-02-15T08:39:14;4.20;99.90
52459;DHT22;38372;52.902;6.024;2023-02-15T08:41:43;4.30;99.90
52459;DHT22;38372;52.902;6.024;2023-02-15T08:44:09;4.40;99.90
52459;DHT22;38372;52.902;6.024;2023-02-15T08:46:40;4.60;99.90
52459;DHT22;38372;52.902;6.024;2023-02-15T08:49:07;4.80;99.90
52459;DHT22;38372;52.902;6.024;2023-02-15T08:51:35;5.30;99.90
52459;DHT22;38372;52.902;6.024;2023-02-15T08:54:04;5.50;99.90
52459;DHT22;38372;52.902;6.024;2023-02-15T08:56:33;5.70;99.90
52459;DHT22;38372;52.902;6.024;2023-02-15T08:59:00;6.00;99.90
52459;DHT22;38372;52.902;6.024;2023-02-15T09:01:28;6.40;99.90
52459;DHT22;38372;52.902;6.024;2023-02-15T09:03:59;6.90;99.90
52459;DHT22;38372;52.902;6.024;2023-02-15T09:06:26;7.30;99.90
52459;DHT22;38372;52.902;6.024;2023-02-15T09:08:52;7.60;99.90
52459;DHT22;38372;52.902;6.024;2023-02-15T09:11:23;7.80;99.90
52459;DHT22;38372;52.902;6.024;2023-02-15T09:13:58;8.00;99.90
52459;DHT22;38372;52.902;6.024;2023-02-15T09:16:35;8.20;99.90
52459;DHT22;38372;52.902;6.024;2023-02-15T09:19:04;8.40;99.90
52459;DHT22;38372;52.902;6.024;2023-02-15T09:21:30;8.60;99.90
52459;DHT22;38372;52.902;6.024;2023-02-15T09:23:59;8.70;99.90
52459;DHT22;38372;52.902;6.024;2023-02-15T09:26:26;8.80;99.90
52459;DHT22;38372;52.902;6.024;2023-02-15T09:28:55;8.80;99.90
52459;DHT22;38372;52.902;6.024;2023-02-15T09:31:26;8.90;99.90
52459;DHT22;38372;52.902;6.024;2023-02-15T09:33:53;9.10;99.90
52459;DHT22;38372;52.902;6.024;2023-02-15T09:36:27;9.20;99.90
52459;DHT22;38372;52.902;6.024;2023-02-15T09:44:57;9.80;99.90
52459;DHT22;38372;52.902;6.024;2023-02-15T09:59:00;10.50;99.90
52459;DHT22;38372;52.902;6.024;2023-02-15T10:01:58;10.60;99.90
52459;DHT22;38372;52.902;6.024;2023-02-15T10:04:49;10.40;99.90
52459;DHT22;38372;52.902;6.024;2023-02-15T10:07:53;10.10;99.90
52459;DHT22;38372;52.902;6.024;2023-02-15T10:13:39;10.10;99.90
52459;DHT22;38372;52.902;6.024;2023-02-15T10:18:55;11.00;99.90
52459;DHT22;38372;52.902;6.024;2023-02-15T10:27:14;11.20;99.90
52459;DHT22;38372;52.902;6.024;2023-02-15T10:32:24;10.80;99.90
52459;DHT22;38372;52.902;6.024;2023-02-15T10:50:56;10.80;99.90
52459;DHT22;38372;52.902;6.024;2023-02-15T10:56:24;11.50;99.90
52459;DHT22;38372;52.902;6.024;2023-02-15T10:59:19;11.70;99.90
52459;DHT22;38372;52.902;6.024;2023-02-15T11:02:20;11.70;99.90
52459;DHT22;38372;52.902;6.024;2023-02-15T11:07:41;12.60;99.90
52459;DHT22;38372;52.902;6.024;2023-02-15T11:12:54;13.10;99.90
52459;DHT22;38372;52.902;6.024;2023-02-15T11:15:32;13.30;99.90
52459;DHT22;38372;52.902;6.024;2023-02-15T11:21:19;13.40;99.90
52459;DHT22;38372;52.902;6.024;2023-02-15T11:23:47;13.50;99.90
52459;DHT22;38372;52.902;6.024;2023-02-15T11:26:34;13.50;99.90
52459;DHT22;38372;52.902;6.024;2023-02-15T11:32:28;13.00;99.90
52459;DHT22;38372;52.902;6.024;2023-02-15T11:35:20;13.10;99.90
52459;DHT22;38372;52.902;6.024;2023-02-15T11:40:39;13.40;99.90
52459;DHT22;38372;52.902;6.024;2023-02-15T11:43:23;13.70;99.90
52459;DHT22;38372;52.902;6.024;2023-02-15T11:45:51;13.90;99.90
52459;DHT22;38372;52.902;6.024;2023-02-15T11:48:17;13.80;99.90
52459;DHT22;38372;52.902;6.024;2023-02-15T11:50:44;13.90;99.90
52459;DHT22;38372;52.902;6.024;2023-02-15T11:53:21;14.10;99.90
52459;DHT22;38372;52.902;6.024;2023-02-15T11:55:51;13.90;99.90
52459;DHT22;38372;52.902;6.024;2023-02-15T12:01:33;13.00;99.90
52459;DHT22;38372;52.902;6.024;2023-02-15T12:06:55;13.50;99.90
52459;DHT22;38372;52.902;6.024;2023-02-15T12:09:38;13.60;99.90
52459;DHT22;38372;52.902;6.024;2023-02-15T12:12:27;13.80;99.90
52459;DHT22;38372;52.902;6.024;2023-02-15T12:14:58;14.10;99.90
52459;DHT22;38372;52.902;6.024;2023-02-15T12:17:27;14.10;99.90
52459;DHT22;38372;52.902;6.024;2023-02-15T12:19:57;14.00;99.90
52459;DHT22;38372;52.902;6.024;2023-02-15T12:22:28;13.90;99.90
52459;DHT22;38372;52.902;6.024;2023-02-15T12:24:58;14.10;99.90
52459;DHT22;38372;52.902;6.024;2023-02-15T12:27:27;13.90;99.90
52459;DHT22;38372;52.902;6.024;2023-02-15T12:30:00;13.50;99.90
52459;DHT22;38372;52.902;6.024;2023-02-15T12:32:34;13.00;99.90
52459;DHT22;38372;52.902;6.024;2023-02-15T12:35:30;12.50;99.90
52459;DHT22;38372;52.902;6.024;2023-02-15T12:40:39;11.90;99.90
52459;DHT22;38372;52.902;6.024;2023-02-15T12:43:34;11.70;99.90
52459;DHT22;38372;52.902;6.024;2023-02-15T12:46:22;11.40;99.90
52459;DHT22;38372;52.902;6.024;2023-02-15T12:49:25;11.30;99.90
52459;DHT22;38372;52.902;6.024;2023-02-15T12:51:52;11.40;99.90
52459;DHT22;38372;52.902;6.024;2023-02-15T12:54:28;11.50;99.90
52459;DHT22;38372;52.902;6.024;2023-02-15T12:56:55;11.50;99.90
52459;DHT22;38372;52.902;6.024;2023-02-15T12:59:23;11.30;99.90
52459;DHT22;38372;52.902;6.024;2023-02-15T13:01:49;11.30;99.90
52459;DHT22;38372;52.902;6.024;2023-02-15T13:04:28;11.30;99.90
52459;DHT22;38372;52.902;6.024;2023-02-15T13:07:00;11.30;99.90
52459;DHT22;38372;52.902;6.024;2023-02-15T13:12:08;11.10;99.90
52459;DHT22;38372;52.902;6.024;2023-02-15T13:14:35;11.00;99.90
52459;DHT22;38372;52.902;6.024;2023-02-15T13:17:03;10.90;99.90
52459;DHT22;38372;52.902;6.024;2023-02-15T13:19:46;10.90;99.90
52459;DHT22;38372;52.902;6.024;2023-02-15T13:22:16;10.80;99.90
52459;DHT22;38372;52.902;6.024;2023-02-15T13:27:17;10.80;99.90
52459;DHT22;38372;52.902;6.024;2023-02-15T13:29:52;10.80;99.90
52459;DHT22;38372;52.902;6.024;2023-02-15T13:32:33;10.80;99.90
52459;DHT22;38372;52.902;6.024;2023-02-15T13:35:03;11.00;99.90
52459;DHT22;38372;52.902;6.024;2023-02-15T13:40:29;11.10;99.90
52459;DHT22;38372;52.902;6.024;2023-02-15T13:43:03;11.20;99.90
52459;DHT22;38372;52.902;6.024;2023-02-15T13:51:42;11.20;99.90
52459;DHT22;38372;52.902;6.024;2023-02-15T13:54:36;11.30;99.90
52459;DHT22;38372;52.902;6.024;2023-02-15T14:11:34;11.30;99.90
52459;DHT22;38372;52.902;6.024;2023-02-15T14:14:05;11.20;99.90
52459;DHT22;38372;52.902;6.024;2023-02-15T14:16:56;11.20;99.90
52459;DHT22;38372;52.902;6.024;2023-02-15T14:21:56;11.20;99.90
52459;DHT22;38372;52.902;6.024;2023-02-15T14:32:49;11.30;99.90
52459;DHT22;38372;52.902;6.024;2023-02-15T14:35:28;11.40;99.90
52459;DHT22;38372;52.902;6.024;2023-02-15T14:38:25;11.40;99.90
52459;DHT22;38372;52.902;6.024;2023-02-15T14:41:18;11.50;99.90
52459;DHT22;38372;52.902;6.024;2023-02-15T14:44:15;11.50;99.90
52459;DHT22;38372;52.902;6.024;2023-02-15T14:47:01;11.40;99.90
52459;DHT22;38372;52.902;6.024;2023-02-15T14:49:37;11.40;99.90
52459;DHT22;38372;52.902;6.024;2023-02-15T15:04:40;11.10;99.90
52459;DHT22;38372;52.902;6.024;2023-02-15T15:09:38;11.10;99.90
52459;DHT22;38372;52.902;6.024;2023-02-15T15:14:52;11.00;99.90
52459;DHT22;38372;52.902;6.024;2023-02-15T15:20:12;10.90;99.90
52459;DHT22;38372;52.902;6.024;2023-02-15T15:22:40;10.80;99.90
52459;DHT22;38372;52.902;6.024;2023-02-15T15:42:12;10.10;99.90
52459;DHT22;38372;52.902;6.024;2023-02-15T15:48:02;9.90;99.90
52459;DHT22;38372;52.902;6.024;2023-02-15T15:50:32;9.80;99.90
52459;DHT22;38372;52.902;6.024;2023-02-15T15:53:00;9.70;99.90
52459;DHT22;38372;52.902;6.024;2023-02-15T15:55:29;9.60;99.90
52459;DHT22;38372;52.902;6.024;2023-02-15T15:58:16;9.40;99.90
52459;DHT22;38372;52.902;6.024;2023-02-15T16:00:47;9.30;99.90
52459;DHT22;38372;52.902;6.024;2023-02-15T16:03:23;9.20;99.90
52459;DHT22;38372;52.902;6.024;2023-02-15T16:05:49;9.10;99.90
52459;DHT22;38372;52.902;6.024;2023-02-15T16:08:37;9.00;99.90
52459;DHT22;38372;52.902;6.024;2023-02-15T16:11:25;8.90;99.90
52459;DHT22;38372;52.902;6.024;2023-02-15T16:13:52;8.80;99.90
52459;DHT22;38372;52.902;6.024;2023-02-15T16:16:27;8.80;99.90
52459;DHT22;38372;52.902;6.024;2023-02-15T16:18:57;8.80;99.90
52459;DHT22;38372;52.902;6.024;2023-02-15T16:21:29;8.80;99.90
52459;DHT22;38372;52.902;6.024;2023-02-15T16:29:16;8.70;99.90
52459;DHT22;38372;52.902;6.024;2023-02-15T16:31:42;8.60;99.90
52459;DHT22;38372;52.902;6.024;2023-02-15T16:34:17;8.50;99.90
52459;DHT22;38372;52.902;6.024;2023-02-15T16:36:43;8.50;99.90
52459;DHT22;38372;52.902;6.024;2023-02-15T16:39:20;8.40;99.90
52459;DHT22;38372;52.902;6.024;2023-02-15T16:41:47;8.30;99.90
52459;DHT22;38372;52.902;6.024;2023-02-15T16:44:19;8.20;99.90
52459;DHT22;38372;52.902;6.024;2023-02-15T16:46:50;8.20;99.90
52459;DHT22;38372;52.902;6.024;2023-02-15T16:49:23;8.10;99.90
52459;DHT22;38372;52.902;6.024;2023-02-15T16:54:24;8.00;99.90
52459;DHT22;38372;52.902;6.024;2023-02-15T16:56:51;7.90;99.90
52459;DHT22;38372;52.902;6.024;2023-02-15T17:01:51;7.80;99.90
52459;DHT22;38372;52.902;6.024;2023-02-15T17:07:14;7.80;99.90
52459;DHT22;38372;52.902;6.024;2023-02-15T17:09:56;7.70;99.90
52459;DHT22;38372;52.902;6.024;2023-02-15T17:12:45;7.70;99.90
52459;DHT22;38372;52.902;6.024;2023-02-15T17:15:42;7.70;99.90
52459;DHT22;38372;52.902;6.024;2023-02-15T17:18:22;7.60;99.90
52459;DHT22;38372;52.902;6.024;2023-02-15T17:20:52;7.60;99.90
52459;DHT22;38372;52.902;6.024;2023-02-15T17:23:32;7.50;99.90
52459;DHT22;38372;52.902;6.024;2023-02-15T17:26:00;7.40;99.90
52459;DHT22;38372;52.902;6.024;2023-02-15T17:28:31;7.40;99.90
52459;DHT22;38372;52.902;6.024;2023-02-15T17:30:58;7.40;99.90
52459;DHT22;38372;52.902;6.024;2023-02-15T17:36:09;7.30;99.90
52459;DHT22;38372;52.902;6.024;2023-02-15T17:38:40;7.30;99.90
52459;DHT22;38372;52.902;6.024;2023-02-15T17:41:29;7.30;99.90
52459;DHT22;38372;52.902;6.024;2023-02-15T17:43:57;7.20;99.90
52459;DHT22;38372;52.902;6.024;2023-02-15T17:46:32;7.20;99.90
52459;DHT22;38372;52.902;6.024;2023-02-15T17:49:04;7.20;99.90
52459;DHT22;38372;52.902;6.024;2023-02-15T17:51:33;7.20;99.90
52459;DHT22;38372;52.902;6.024;2023-02-15T17:54:03;7.30;99.90
52459;DHT22;38372;52.902;6.024;2023-02-15T17:56:56;7.30;99.90
52459;DHT22;38372;52.902;6.024;2023-02-15T17:59:27;7.30;99.90
52459;DHT22;38372;52.902;6.024;2023-02-15T18:01:53;7.40;99.90
52459;DHT22;38372;52.902;6.024;2023-02-15T18:04:38;7.30;99.90
52459;DHT22;38372;52.902;6.024;2023-02-15T18:07:22;7.30;99.90
52459;DHT22;38372;52.902;6.024;2023-02-15T18:10:17;7.30;99.90
52459;DHT22;38372;52.902;6.024;2023-02-15T18:13:12;7.30;99.90
52459;DHT22;38372;52.902;6.024;2023-02-15T18:15:39;7.20;99.90
52459;DHT22;38372;52.902;6.024;2023-02-15T18:18:22;7.20;99.90
52459;DHT22;38372;52.902;6.024;2023-02-15T18:20:51;7.10;99.90
52459;DHT22;38372;52.902;6.024;2023-02-15T18:23:21;7.10;99.90
52459;DHT22;38372;52.902;6.024;2023-02-15T18:25:47;7.00;99.90
52459;DHT22;38372;52.902;6.024;2023-02-15T18:28:14;6.90;99.90
52459;DHT22;38372;52.902;6.024;2023-02-15T18:30:40;6.90;99.90
52459;DHT22;38372;52.902;6.024;2023-02-15T18:33:37;6.80;99.90
52459;DHT22;38372;52.902;6.024;2023-02-15T18:36:06;6.80;99.90
52459;DHT22;38372;52.902;6.024;2023-02-15T18:38:33;6.70;99.90
52459;DHT22;38372;52.902;6.024;2023-02-15T18:41:00;6.70;99.90
52459;DHT22;38372;52.902;6.024;2023-02-15T18:43:30;6.60;99.90
52459;DHT22;38372;52.902;6.024;2023-02-15T18:45:56;6.60;99.90
52459;DHT22;38372;52.902;6.024;2023-02-15T18:48:31;6.50;99.90
52459;DHT22;38372;52.902;6.024;2023-02-15T18:51:01;6.50;99.90
52459;DHT22;38372;52.902;6.024;2023-02-15T18:53:28;6.40;99.90
52459;DHT22;38372;52.902;6.024;2023-02-15T18:55:56;6.30;99.90
52459;DHT22;38372;52.902;6.024;2023-02-15T18:58:25;6.20;99.90
52459;DHT22;38372;52.902;6.024;2023-02-15T19:00:52;6.20;99.90
52459;DHT22;38372;52.902;6.024;2023-02-15T19:03:20;6.20;99.90
52459;DHT22;38372;52.902;6.024;2023-02-15T19:05:46;6.20;99.90
52459;DHT22;38372;52.902;6.024;2023-02-15T19:08:22;6.20;99.90
52459;DHT22;38372;52.902;6.024;2023-02-15T19:10:50;6.20;99.90
52459;DHT22;38372;52.902;6.024;2023-02-15T19:13:16;6.20;99.90
52459;DHT22;38372;52.902;6.024;2023-02-15T19:15:43;6.20;99.90
52459;DHT22;38372;52.902;6.024;2023-02-15T19:18:09;6.20;99.90
52459;DHT22;38372;52.902;6.024;2023-02-15T19:20:36;6.20;99.90
52459;DHT22;38372;52.902;6.024;2023-02-15T19:23:21;6.20;99.90
52459;DHT22;38372;52.902;6.024;2023-02-15T19:25:49;6.20;99.90
52459;DHT22;38372;52.902;6.024;2023-02-15T19:28:23;6.20;99.90
52459;DHT22;38372;52.902;6.024;2023-02-15T19:30:52;6.30;99.90
52459;DHT22;38372;52.902;6.024;2023-02-15T19:33:19;6.30;99.90
52459;DHT22;38372;52.902;6.024;2023-02-15T19:35:52;6.30;99.90
52459;DHT22;38372;52.902;6.024;2023-02-15T19:38:29;6.40;99.90
52459;DHT22;38372;52.902;6.024;2023-02-15T19:41:04;6.40;99.90